Steelaway — WDI2411 — position and weather

sailwx.info

Track history (hours):
 
Tides and Currents Weather Stations Pressure Air Temp Water Temp Dewpoint Dewpoint Depression Visibility Wind Speed Wind Dir Waves Ship Positions

Steelaway

Owner: Veneklasen, Alan J, Grand Rapids, MI. More information available from US FCC via Universal Licensing System and Coast Guard Vessel Documentation Center.

Last reported at 2018-Jul-07 17:51 UTC. Time now 2018-Jul-16 14:45 UTC.
Position N 48°37' W 123°10'.
Warning: this ship's position is 8 days out of date.

Length 31 m.

Type: Pleasure craft. MMSI: 367677880.

Date/timePositionNaut miles runAvg speedWind from/ knotsBaromVisibWave heightAir tempDewpointWater temp
2018-Jul-07 17:51N 48°37' W 123°10'6 9.4
2018-Jul-07 17:10N 48°35' W 123°01'2 1.5
2018-Jul-07 15:49N 48°37' W 122°59'0 0.0
2018-Jul-07 15:25N 48°37' W 122°59'0 0.0
2018-Jul-07 14:58N 48°37' W 122°59'0 0.0
2018-Jul-07 14:28N 48°37' W 122°59'0 0.0
2018-Jul-07 13:55N 48°37' W 122°59'0 0.0
2018-Jul-07 13:28N 48°37' W 122°59'0 0.0
2018-Jul-07 12:49N 48°37' W 122°59'0 0.0
2018-Jul-07 12:07N 48°37' W 122°59'0 0.0
2018-Jul-07 11:55N 48°37' W 122°59'0 0.0
2018-Jul-07 11:19N 48°37' W 122°59'0 0.0
2018-Jul-07 10:55N 48°37' W 122°59'0 0.0
2018-Jul-07 10:28N 48°37' W 122°59'0 0.0
2018-Jul-07 09:58N 48°37' W 122°59'0 0.0
2018-Jul-07 09:19N 48°37' W 122°59'0 0.0
2018-Jul-07 08:58N 48°37' W 122°59'0 0.0
2018-Jul-07 08:19N 48°37' W 122°59'0 0.0
2018-Jul-07 07:55N 48°37' W 122°59'0 0.0
2018-Jul-07 07:28N 48°37' W 122°59'0 0.0
2018-Jul-07 06:58N 48°37' W 122°59'0 0.0
2018-Jul-07 06:25N 48°37' W 122°59'0 0.0
2018-Jul-07 05:55N 48°37' W 122°59'0 0.0
2018-Jul-07 05:28N 48°37' W 122°59'0 0.0
2018-Jul-07 05:01N 48°37' W 122°59'0 0.0
2018-Jul-07 04:31N 48°37' W 122°59'0 0.0
2018-Jul-07 03:49N 48°37' W 122°59'1 2.4
2018-Jul-07 03:29N 48°36' W 122°58'3 6.7
2018-Jul-07 03:00N 48°38' W 123°02'6 0.7
2018-Jul-06 19:19N 48°43' W 122°58'  
Track history (hours):
 
Tides and Currents Weather Stations Pressure Air Temp Water Temp Dewpoint Dewpoint Depression Visibility Wind Speed Wind Dir Waves Ship Positions

Steelaway

Owner: Veneklasen, Alan J, Grand Rapids, MI. More information available from US FCC via Universal Licensing System and Coast Guard Vessel Documentation Center.

Last reported at 2018-Jul-07 17:51 UTC. Time now 2018-Jul-16 14:45 UTC.
Position N 48°37' W 123°10'.
Warning: this ship's position is 8 days out of date.

Length 31 m.

Type: Pleasure craft. MMSI: 367677880.

Date/timePositionNaut miles runAvg speedWind from/ knotsBaromVisibWave heightAir tempDewpointWater temp
2018-Jul-07 17:51N 48°37' W 123°10'6 9.4
2018-Jul-07 17:10N 48°35' W 123°01'2 1.5
2018-Jul-07 15:49N 48°37' W 122°59'0 0.0
2018-Jul-07 15:25N 48°37' W 122°59'0 0.0
2018-Jul-07 14:58N 48°37' W 122°59'0 0.0
2018-Jul-07 14:28N 48°37' W 122°59'0 0.0
2018-Jul-07 13:55N 48°37' W 122°59'0 0.0
2018-Jul-07 13:28N 48°37' W 122°59'0 0.0
2018-Jul-07 12:49N 48°37' W 122°59'0 0.0
2018-Jul-07 12:07N 48°37' W 122°59'0 0.0
2018-Jul-07 11:55N 48°37' W 122°59'0 0.0
2018-Jul-07 11:19N 48°37' W 122°59'0 0.0
2018-Jul-07 10:55N 48°37' W 122°59'0 0.0
2018-Jul-07 10:28N 48°37' W 122°59'0 0.0
2018-Jul-07 09:58N 48°37' W 122°59'0 0.0
2018-Jul-07 09:19N 48°37' W 122°59'0 0.0
2018-Jul-07 08:58N 48°37' W 122°59'0 0.0
2018-Jul-07 08:19N 48°37' W 122°59'0 0.0
2018-Jul-07 07:55N 48°37' W 122°59'0 0.0
2018-Jul-07 07:28N 48°37' W 122°59'0 0.0
2018-Jul-07 06:58N 48°37' W 122°59'0 0.0
2018-Jul-07 06:25N 48°37' W 122°59'0 0.0
2018-Jul-07 05:55N 48°37' W 122°59'0 0.0
2018-Jul-07 05:28N 48°37' W 122°59'0 0.0
2018-Jul-07 05:01N 48°37' W 122°59'0 0.0
2018-Jul-07 04:31N 48°37' W 122°59'0 0.0
2018-Jul-07 03:49N 48°37' W 122°59'1 2.4
2018-Jul-07 03:29N 48°36' W 122°58'3 6.7
2018-Jul-07 03:00N 48°38' W 123°02'6 0.7
2018-Jul-06 19:19N 48°43' W 122°58'  

Dump ship's entire track history